Time;durP1;ratioP1;P1;durP2;ratioP2;P2;SDS_P1;SDS_P2;PMS_P1;PMS_P2;Temp;Humidity;BMP_temperature;BMP_pressure;BME280_temperature;BME280_humidity;BME280_pressure;Samples;Min_cycle;Max_cycle;Signal;HPM_P1;HPM_P2
2022/04/19 00:01:13;;;;;;;2.33;1.30;;;10.90;99.90;;;;;;5028715;28;20133;-61
2022/04/19 00:03:40;;;;;;;2.75;1.88;;;10.80;99.90;;;;;;5032328;28;20072;-61
2022/04/19 00:06:07;;;;;;;2.80;1.23;;;10.80;99.90;;;;;;5027366;28;20280;-61
2022/04/19 00:08:35;;;;;;;2.35;1.10;;;10.70;99.90;;;;;;5032527;28;20099;-61
2022/04/19 00:11:03;;;;;;;3.03;1.10;;;10.70;99.90;;;;;;5034694;28;20138;-61
2022/04/19 00:13:30;;;;;;;2.05;1.10;;;10.70;99.90;;;;;;5032036;28;20392;-61
2022/04/19 00:15:58;;;;;;;2.40;1.10;;;10.60;99.90;;;;;;5029707;28;20419;-61
2022/04/19 00:18:29;;;;;;;2.13;1.08;;;10.60;99.90;;;;;;5032596;28;20049;-61
2022/04/19 00:20:56;;;;;;;2.58;1.20;;;10.60;99.90;;;;;;5038160;28;20472;-61
2022/04/19 00:23:23;;;;;;;2.03;1.10;;;10.50;99.90;;;;;;5033551;28;20045;-61
2022/04/19 00:25:52;;;;;;;2.50;1.23;;;10.50;99.90;;;;;;5033826;28;20073;-60
2022/04/19 00:28:20;;;;;;;1.58;0.90;;;10.50;99.90;;;;;;5034953;28;20511;-61
2022/04/19 00:30:51;;;;;;;1.60;1.00;;;10.40;99.90;;;;;;5036762;28;20045;-61
2022/04/19 00:33:17;;;;;;;2.78;1.17;;;10.40;99.90;;;;;;5031944;28;20116;-61
2022/04/19 00:35:44;;;;;;;3.78;1.42;;;10.30;99.90;;;;;;5032716;28;20087;-60
2022/04/19 00:38:11;;;;;;;1.98;0.90;;;10.30;99.90;;;;;;5031963;28;20500;-61
2022/04/19 00:40:38;;;;;;;2.97;1.00;;;10.30;99.90;;;;;;5034074;28;20076;-61
2022/04/19 00:43:05;;;;;;;1.35;1.00;;;10.30;99.90;;;;;;5037031;28;20136;-61
2022/04/19 00:45:34;;;;;;;1.48;0.82;;;10.20;99.90;;;;;;5028448;28;20076;-61
2022/04/19 00:48:02;;;;;;;3.25;0.90;;;10.30;99.90;;;;;;5031878;28;20118;-61
2022/04/19 00:50:30;;;;;;;1.60;0.93;;;10.20;99.90;;;;;;5029518;28;20282;-61
2022/04/19 00:52:57;;;;;;;2.03;1.20;;;10.20;99.90;;;;;;5030946;28;20053;-61
2022/04/19 00:55:24;;;;;;;2.33;0.95;;;10.10;99.90;;;;;;5029923;28;20452;-60
2022/04/19 00:57:51;;;;;;;2.10;1.10;;;10.10;99.90;;;;;;5030232;28;20136;-61
2022/04/19 01:00:18;;;;;;;1.75;1.10;;;10.00;99.90;;;;;;5018426;28;20140;-60
2022/04/19 01:02:44;;;;;;;2.28;1.35;;;10.00;99.90;;;;;;5032654;28;20107;-61
2022/04/19 01:05:11;;;;;;;2.40;0.88;;;9.90;99.90;;;;;;5031821;28;20060;-61
2022/04/19 01:07:39;;;;;;;1.13;0.80;;;9.90;99.90;;;;;;5036123;28;20156;-61
2022/04/19 01:10:07;;;;;;;1.70;0.90;;;9.90;99.90;;;;;;5032074;28;20053;-60
2022/04/19 01:15:20;;;;;;;1.73;0.93;;;9.70;99.90;;;;;;5030086;28;20045;-60
2022/04/19 01:17:46;;;;;;;3.17;1.02;;;9.70;99.90;;;;;;5030355;28;20053;-61
2022/04/19 01:20:13;;;;;;;2.08;1.00;;;9.70;99.90;;;;;;5029420;28;20144;-62
2022/04/19 01:22:41;;;;;;;1.90;1.23;;;9.60;99.90;;;;;;5030345;28;20513;-61
2022/04/19 01:25:08;;;;;;;5.05;1.38;;;9.60;99.90;;;;;;5030044;28;20606;-61
2022/04/19 01:27:35;;;;;;;1.77;0.80;;;9.60;99.90;;;;;;5027776;28;20057;-61
2022/04/19 01:30:05;;;;;;;2.55;0.90;;;9.60;99.90;;;;;;5030328;28;20080;-61
2022/04/19 01:32:32;;;;;;;1.52;0.90;;;9.50;99.90;;;;;;5030422;28;20187;-61
2022/04/19 01:35:12;;;;;;;2.10;1.02;;;9.50;99.90;;;;;;5033941;28;20132;-61
2022/04/19 01:37:44;;;;;;;0.80;0.60;;;9.50;99.90;;;;;;5034995;28;20373;-59
2022/04/19 01:40:16;;;;;;;1.00;0.75;;;9.50;99.90;;;;;;5034439;28;20430;-60
2022/04/19 01:42:47;;;;;;;2.90;1.33;;;9.50;99.90;;;;;;5036034;28;20064;-60
2022/04/19 01:45:18;;;;;;;1.90;0.80;;;9.50;99.90;;;;;;5036266;28;20119;-60
2022/04/19 01:47:45;;;;;;;1.50;0.93;;;9.50;99.90;;;;;;5030248;28;20433;-60
2022/04/19 01:50:14;;;;;;;1.00;0.80;;;9.40;99.90;;;;;;5030463;28;20176;-60
2022/04/19 01:52:41;;;;;;;2.97;1.10;;;9.40;99.90;;;;;;5032444;28;20584;-61
2022/04/19 01:55:09;;;;;;;1.55;0.80;;;9.40;99.90;;;;;;5036912;28;20406;-60
2022/04/19 01:57:36;;;;;;;3.33;1.20;;;9.30;99.90;;;;;;5036288;28;20072;-62
2022/04/19 02:00:04;;;;;;;1.80;1.00;;;9.30;99.90;;;;;;5026481;28;20073;-60
2022/04/19 02:02:31;;;;;;;2.28;1.08;;;9.30;99.90;;;;;;5031309;28;20110;-60
2022/04/19 02:04:58;;;;;;;2.72;1.00;;;9.30;99.90;;;;;;5034841;28;20394;-60
2022/04/19 02:07:25;;;;;;;1.60;1.00;;;9.20;99.90;;;;;;5030081;28;20084;-60
2022/04/19 02:09:51;;;;;;;1.65;1.02;;;9.20;99.90;;;;;;5030772;28;20069;-60
2022/04/19 02:12:18;;;;;;;1.52;0.88;;;9.20;99.90;;;;;;5029228;28;20084;-59
2022/04/19 02:14:45;;;;;;;1.95;1.00;;;9.20;99.90;;;;;;5028024;28;20594;-60
2022/04/19 02:17:12;;;;;;;2.15;1.10;;;9.20;99.90;;;;;;5033458;28;20096;-60
2022/04/19 02:19:39;;;;;;;1.70;1.30;;;9.20;99.90;;;;;;5036712;28;20481;-60
2022/04/19 02:22:06;;;;;;;1.70;1.00;;;9.20;99.90;;;;;;5036134;28;20092;-60
2022/04/19 02:24:34;;;;;;;2.05;1.10;;;9.20;99.90;;;;;;5029799;28;20556;-60
2022/04/19 02:27:01;;;;;;;2.08;1.10;;;9.20;99.90;;;;;;5036826;28;20044;-60
2022/04/19 02:29:27;;;;;;;1.05;0.75;;;9.20;99.90;;;;;;5032278;28;20072;-60
2022/04/19 02:31:54;;;;;;;1.30;0.73;;;9.20;99.90;;;;;;5029587;28;20529;-60
2022/04/19 02:34:21;;;;;;;2.05;1.08;;;9.10;99.90;;;;;;5032222;28;20119;-60
2022/04/19 02:36:48;;;;;;;1.52;0.90;;;9.10;99.90;;;;;;5029824;28;20053;-60
2022/04/19 02:39:14;;;;;;;1.52;0.80;;;9.10;99.90;;;;;;5025011;28;20140;-60
2022/04/19 02:41:41;;;;;;;1.50;0.95;;;9.00;99.90;;;;;;5021640;28;20095;-60
2022/04/19 02:44:08;;;;;;;2.03;1.13;;;9.00;99.90;;;;;;5022968;28;20501;-60
2022/04/19 02:46:38;;;;;;;2.55;1.20;;;8.90;99.90;;;;;;5035327;28;20538;-60
2022/04/19 02:49:05;;;;;;;2.00;1.10;;;8.90;99.90;;;;;;5030509;28;20136;-60
2022/04/19 02:51:35;;;;;;;2.45;1.10;;;8.90;99.90;;;;;;5011670;28;20045;-60
2022/04/19 02:54:02;;;;;;;2.53;1.17;;;8.90;99.90;;;;;;5029067;28;20103;-60
2022/04/19 02:56:28;;;;;;;2.00;0.98;;;8.80;99.90;;;;;;5030834;28;20577;-60
2022/04/19 02:58:55;;;;;;;1.45;0.93;;;8.80;99.90;;;;;;5033591;28;20225;-60
2022/04/19 03:01:22;;;;;;;3.13;0.85;;;8.70;99.90;;;;;;5032603;28;20077;-60
2022/04/19 03:03:49;;;;;;;1.63;0.93;;;8.70;99.90;;;;;;5034510;28;20509;-60
2022/04/19 03:06:15;;;;;;;2.75;0.93;;;8.60;99.90;;;;;;5012438;28;20081;-59
2022/04/19 03:08:42;;;;;;;2.65;1.08;;;8.60;99.90;;;;;;5033886;28;20068;-60
2022/04/19 03:11:09;;;;;;;1.55;0.85;;;8.60;99.90;;;;;;5033195;28;20128;-60
2022/04/19 03:13:36;;;;;;;2.00;0.93;;;8.50;99.90;;;;;;5034069;28;20124;-60
2022/04/19 03:16:03;;;;;;;1.38;0.90;;;8.50;99.90;;;;;;5032852;28;20049;-60
2022/04/19 03:18:30;;;;;;;1.27;0.82;;;8.40;99.90;;;;;;5030988;28;20580;-60
2022/04/19 03:21:01;;;;;;;1.85;0.93;;;8.40;99.90;;;;;;5028900;28;20102;-60
2022/04/19 03:28:59;;;;;;;2.75;1.45;;;8.30;99.90;;;;;;5027792;28;20135;-59
2022/04/19 03:31:26;;;;;;;1.85;1.00;;;8.30;99.90;;;;;;5027716;28;20186;-60
2022/04/19 03:33:53;;;;;;;1.75;0.93;;;8.20;99.90;;;;;;5030933;28;20521;-59
2022/04/19 03:36:20;;;;;;;1.35;0.90;;;8.10;99.90;;;;;;5029556;28;20037;-60
2022/04/19 03:38:47;;;;;;;2.35;0.80;;;8.10;99.90;;;;;;5031498;28;20394;-59
2022/04/19 03:41:14;;;;;;;1.50;1.02;;;8.10;99.90;;;;;;5031234;28;20073;-60
2022/04/19 03:43:47;;;;;;;1.60;0.98;;;8.10;99.90;;;;;;5033382;28;20045;-60
2022/04/19 03:46:14;;;;;;;1.88;0.98;;;8.00;99.90;;;;;;5031141;28;20147;-59
2022/04/19 03:48:41;;;;;;;1.60;1.02;;;8.00;99.90;;;;;;5031386;28;20046;-59
2022/04/19 03:51:07;;;;;;;1.90;1.33;;;8.00;99.90;;;;;;5038346;28;20077;-60
2022/04/19 03:53:34;;;;;;;3.08;1.02;;;7.90;99.90;;;;;;5038712;28;20148;-60
2022/04/19 03:56:03;;;;;;;1.52;0.80;;;7.90;99.90;;;;;;5046520;28;20073;-59
2022/04/19 03:58:32;;;;;;;1.90;0.82;;;7.90;99.90;;;;;;5046578;28;20144;-59
2022/04/19 04:01:00;;;;;;;1.77;1.08;;;7.90;99.90;;;;;;5046507;28;20061;-60
2022/04/19 04:03:27;;;;;;;2.25;1.00;;;7.80;99.90;;;;;;5036134;28;20568;-59
2022/04/19 04:05:55;;;;;;;1.58;0.98;;;7.80;99.90;;;;;;5027089;28;20089;-59
2022/04/19 04:08:22;;;;;;;1.75;1.00;;;7.90;99.90;;;;;;5026375;28;20132;-59
2022/04/19 04:10:51;;;;;;;2.47;1.20;;;7.90;99.90;;;;;;5026506;28;20137;-60
2022/04/19 04:13:18;;;;;;;2.33;1.08;;;7.90;99.90;;;;;;5026361;28;20056;-59
2022/04/19 04:15:45;;;;;;;1.52;0.90;;;7.90;99.90;;;;;;5026638;28;20199;-59
2022/04/19 04:18:12;;;;;;;2.47;1.10;;;7.90;99.90;;;;;;5027246;28;20092;-60
2022/04/19 04:20:38;;;;;;;1.58;1.00;;;8.00;99.90;;;;;;5026546;28;20076;-59
2022/04/19 04:23:05;;;;;;;2.67;1.10;;;8.00;99.90;;;;;;5027459;28;20458;-60
2022/04/19 04:25:32;;;;;;;2.20;1.17;;;8.00;99.90;;;;;;5026708;28;20152;-59
2022/04/19 04:27:59;;;;;;;1.67;0.90;;;8.00;99.90;;;;;;5027137;28;20781;-60
2022/04/19 04:30:25;;;;;;;1.50;0.80;;;8.00;99.90;;;;;;5026292;28;20041;-60
2022/04/19 04:32:53;;;;;;;1.58;1.17;;;8.00;99.90;;;;;;5026811;28;20247;-60
2022/04/19 04:35:19;;;;;;;1.60;0.93;;;7.90;99.90;;;;;;5026202;28;20136;-60
2022/04/19 04:37:46;;;;;;;2.95;1.10;;;7.90;99.90;;;;;;5025509;28;20480;-59
2022/04/19 04:40:13;;;;;;;1.08;0.88;;;8.00;99.90;;;;;;5026181;28;20085;-59
2022/04/19 04:42:40;;;;;;;2.30;1.10;;;8.00;99.90;;;;;;5026170;28;20132;-58
2022/04/19 04:45:07;;;;;;;2.30;1.27;;;7.90;99.90;;;;;;5026082;28;20144;-59
2022/04/19 04:50:19;;;;;;;3.03;1.00;;;7.90;99.90;;;;;;5004660;28;20128;-60
2022/04/19 04:52:47;;;;;;;1.48;0.98;;;7.90;99.90;;;;;;5007401;28;20149;-59
2022/04/19 04:55:13;;;;;;;1.33;0.90;;;7.90;99.90;;;;;;5024071;28;20410;-60
2022/04/19 04:57:40;;;;;;;2.65;1.15;;;7.90;99.90;;;;;;5022689;28;20089;-60
2022/04/19 05:00:07;;;;;;;2.55;1.08;;;7.90;99.90;;;;;;5023454;28;20092;-59
2022/04/19 05:02:34;;;;;;;2.30;1.27;;;7.90;99.90;;;;;;5019922;28;20406;-62
2022/04/19 05:05:01;;;;;;;1.67;1.10;;;7.90;99.90;;;;;;5022382;28;20072;-60
2022/04/19 05:07:28;;;;;;;2.10;1.15;;;7.90;99.90;;;;;;5021596;28;20053;-60
2022/04/19 05:09:58;;;;;;;2.08;1.38;;;7.90;99.90;;;;;;5021831;28;20133;-59
2022/04/19 05:12:25;;;;;;;2.42;1.10;;;7.90;99.90;;;;;;5019595;28;20292;-59
2022/04/19 05:14:52;;;;;;;1.48;1.08;;;7.90;99.90;;;;;;5013749;28;20072;-60
2022/04/19 05:17:18;;;;;;;1.50;0.90;;;7.90;99.90;;;;;;5012366;28;20160;-59
2022/04/19 05:19:45;;;;;;;2.00;1.20;;;7.90;99.90;;;;;;5007568;28;20133;-60
2022/04/19 05:22:12;;;;;;;2.50;1.38;;;8.00;99.90;;;;;;5012621;28;20546;-60
2022/04/19 05:24:38;;;;;;;2.08;1.60;;;8.00;99.90;;;;;;5014882;28;20077;-59
2022/04/19 05:27:05;;;;;;;2.45;1.40;;;8.00;99.90;;;;;;5038496;28;20076;-60
2022/04/19 05:29:32;;;;;;;2.47;1.58;;;8.00;99.90;;;;;;5025613;28;20143;-59
2022/04/19 05:31:59;;;;;;;2.67;1.75;;;8.00;99.90;;;;;;5020704;28;20140;-61
2022/04/19 05:34:25;;;;;;;2.22;1.40;;;8.00;99.90;;;;;;5021298;28;20073;-59
2022/04/19 05:36:52;;;;;;;2.17;1.33;;;8.10;99.90;;;;;;5017508;28;20134;-60
2022/04/19 05:39:19;;;;;;;3.17;1.40;;;8.10;99.90;;;;;;5016360;28;20172;-60
2022/04/19 05:41:46;;;;;;;1.83;1.00;;;8.20;99.90;;;;;;5010176;28;20153;-59
2022/04/19 05:44:13;;;;;;;3.17;1.50;;;8.20;99.90;;;;;;5024013;28;20132;-60
2022/04/19 05:46:39;;;;;;;2.15;1.35;;;8.20;99.90;;;;;;5041869;28;20489;-59
2022/04/19 05:49:12;;;;;;;2.63;1.30;;;8.20;99.90;;;;;;5018080;28;20111;-59
2022/04/19 05:51:40;;;;;;;1.58;0.98;;;8.20;99.90;;;;;;5041777;28;20160;-59
2022/04/19 05:54:07;;;;;;;2.22;1.63;;;8.30;99.90;;;;;;5007865;28;20081;-59
2022/04/19 05:56:34;;;;;;;2.25;1.17;;;8.30;99.90;;;;;;5035576;28;20126;-59
2022/04/19 05:59:01;;;;;;;2.00;1.10;;;8.40;99.90;;;;;;5029825;28;20644;-59
2022/04/19 06:04:51;;;;;;;3.38;1.27;;;8.40;99.90;;;;;;5016437;28;20152;-59
2022/04/19 06:06:59;;;;;;;2.20;0.95;;;8.40;99.90;;;;;;5016957;28;20045;-59
2022/04/19 06:09:26;;;;;;;1.98;1.00;;;8.40;99.90;;;;;;5016510;28;20056;-60
2022/04/19 06:11:53;;;;;;;2.63;0.85;;;8.40;99.90;;;;;;5012976;28;20139;-60
2022/04/19 06:14:19;;;;;;;2.00;0.90;;;8.50;99.90;;;;;;5006913;28;20489;-61
2022/04/19 06:16:46;;;;;;;1.85;0.90;;;8.50;99.90;;;;;;5009434;28;20443;-60
2022/04/19 06:19:13;;;;;;;1.75;1.05;;;8.50;99.90;;;;;;5009086;28;20572;-61
2022/04/19 06:21:41;;;;;;;1.95;1.00;;;8.50;99.90;;;;;;5035370;28;20128;-60
2022/04/19 06:24:09;;;;;;;2.13;1.02;;;8.60;99.90;;;;;;5025750;28;20077;-60
2022/04/19 06:26:36;;;;;;;1.20;0.93;;;8.60;99.90;;;;;;5007435;28;20049;-61
2022/04/19 06:29:03;;;;;;;1.98;1.17;;;8.70;99.90;;;;;;5003281;28;20166;-60
2022/04/19 06:31:29;;;;;;;1.73;1.15;;;8.70;99.90;;;;;;5007587;28;20132;-60
2022/04/19 06:33:56;;;;;;;1.55;1.20;;;8.80;99.90;;;;;;5004912;28;20256;-60
2022/04/19 06:36:23;;;;;;;1.40;0.85;;;8.90;99.90;;;;;;5008225;28;20213;-61
2022/04/19 06:38:50;;;;;;;1.45;0.82;;;8.90;99.90;;;;;;5013098;28;20291;-60
2022/04/19 06:41:16;;;;;;;1.52;0.85;;;9.00;99.90;;;;;;5006585;28;20188;-61
2022/04/19 06:43:43;;;;;;;2.42;0.95;;;9.10;99.90;;;;;;5013071;28;20135;-60
2022/04/19 06:46:17;;;;;;;2.08;1.23;;;9.10;99.90;;;;;;5006130;28;20046;-60
2022/04/19 06:48:44;;;;;;;1.40;1.00;;;9.10;99.90;;;;;;5033347;28;20051;-60
2022/04/19 06:51:10;;;;;;;1.98;1.05;;;9.20;99.90;;;;;;5013605;28;20145;-60
2022/04/19 06:53:57;;;;;;;2.38;1.10;;;9.30;99.90;;;;;;5028979;28;20053;-60
2022/04/19 06:56:24;;;;;;;2.38;1.00;;;9.40;99.90;;;;;;5033104;28;20129;-60
2022/04/19 06:58:51;;;;;;;1.17;0.88;;;9.40;99.90;;;;;;5002992;28;20081;-60
2022/04/19 07:01:18;;;;;;;2.42;1.33;;;9.40;99.90;;;;;;5007184;28;20591;-60
2022/04/19 07:03:45;;;;;;;1.23;0.90;;;9.50;99.90;;;;;;5023626;28;20477;-60
2022/04/19 07:06:12;;;;;;;1.35;1.20;;;9.60;99.90;;;;;;5024886;28;20136;-60
2022/04/19 07:08:39;;;;;;;2.45;1.25;;;9.70;99.90;;;;;;5039370;28;20579;-60
2022/04/19 07:11:05;;;;;;;1.90;1.17;;;9.80;99.90;;;;;;5033593;28;20314;-60
2022/04/19 07:13:32;;;;;;;2.53;1.00;;;9.90;99.90;;;;;;5024256;28;20110;-60
2022/04/19 07:15:59;;;;;;;3.20;1.52;;;10.10;99.90;;;;;;5014991;28;20064;-61
2022/04/19 07:18:26;;;;;;;1.73;1.10;;;10.10;99.90;;;;;;5009238;28;20064;-60
2022/04/19 07:29:15;;;;;;;3.70;1.40;;;10.50;99.90;;;;;;5036232;28;20077;-60
2022/04/19 07:31:43;;;;;;;2.00;1.20;;;10.60;99.90;;;;;;5018353;28;20056;-59
2022/04/19 07:34:10;;;;;;;2.13;1.30;;;10.70;99.90;;;;;;5019712;28;20549;-61
2022/04/19 07:36:40;;;;;;;2.40;1.20;;;10.90;99.90;;;;;;5020538;28;20133;-60
2022/04/19 07:39:11;;;;;;;1.92;1.10;;;11.00;99.90;;;;;;5020683;28;20146;-61
2022/04/19 07:41:39;;;;;;;2.35;1.20;;;11.20;99.90;;;;;;5020496;28;20378;-61
2022/04/19 07:44:10;;;;;;;2.33;1.30;;;11.30;99.90;;;;;;5020602;28;20056;-61
2022/04/19 07:46:37;;;;;;;1.55;1.02;;;11.50;99.90;;;;;;5018145;28;20470;-58
2022/04/19 07:49:04;;;;;;;1.90;1.00;;;11.70;99.90;;;;;;5018686;28;20065;-59
2022/04/19 07:51:31;;;;;;;1.63;1.13;;;11.90;99.90;;;;;;5020447;28;20146;-59
2022/04/19 07:53:58;;;;;;;2.35;1.20;;;12.10;99.90;;;;;;5020194;28;20210;-58
2022/04/19 07:56:24;;;;;;;2.33;1.50;;;12.20;99.90;;;;;;5019872;28;20081;-59
2022/04/19 07:58:52;;;;;;;2.67;1.30;;;12.30;99.90;;;;;;5019883;28;20073;-59
2022/04/19 08:01:19;;;;;;;2.38;1.40;;;12.50;99.90;;;;;;5019116;28;20085;-58
2022/04/19 08:03:46;;;;;;;2.15;1.25;;;12.50;99.90;;;;;;5020451;28;20466;-59
2022/04/19 08:06:13;;;;;;;1.77;1.10;;;12.60;99.90;;;;;;5019680;28;20495;-59
2022/04/19 08:08:43;;;;;;;1.50;1.13;;;12.70;99.90;;;;;;5020250;28;20140;-59
2022/04/19 08:11:10;;;;;;;2.90;1.40;;;12.80;99.90;;;;;;5019561;28;20057;-58
2022/04/19 08:13:36;;;;;;;3.45;1.77;;;12.80;99.90;;;;;;5020331;28;20118;-59
2022/04/19 08:16:05;;;;;;;2.03;1.40;;;12.80;99.90;;;;;;5018540;28;20156;-59
2022/04/19 08:18:32;;;;;;;2.08;1.50;;;12.90;99.90;;;;;;5019926;28;20385;-59
2022/04/19 08:20:59;;;;;;;1.45;1.25;;;12.90;99.90;;;;;;5019293;28;20052;-59
2022/04/19 08:23:26;;;;;;;1.80;1.17;;;13.00;99.90;;;;;;5017947;28;20172;-59
2022/04/19 08:25:57;;;;;;;1.40;1.13;;;13.10;99.90;;;;;;5019816;28;20341;-59
2022/04/19 08:28:24;;;;;;;2.42;1.85;;;13.30;99.90;;;;;;5019699;28;20309;-58
2022/04/19 08:30:50;;;;;;;3.40;1.48;;;13.40;99.90;;;;;;5018153;28;20068;-59
2022/04/19 08:33:17;;;;;;;2.80;1.80;;;13.50;99.90;;;;;;5019312;28;20178;-59
2022/04/19 08:35:44;;;;;;;2.13;1.58;;;13.50;99.90;;;;;;5017542;28;20316;-59
2022/04/19 08:38:11;;;;;;;1.92;1.40;;;13.60;99.90;;;;;;5019017;28;20591;-59
2022/04/19 08:40:37;;;;;;;3.28;1.73;;;13.60;99.90;;;;;;5010956;28;20180;-59
2022/04/19 08:43:05;;;;;;;2.15;1.67;;;13.70;99.90;;;;;;5013065;28;20507;-59
2022/04/19 08:45:33;;;;;;;2.20;1.60;;;13.80;99.90;;;;;;4999052;28;20054;-59
2022/04/19 08:48:01;;;;;;;2.20;1.70;;;14.00;99.90;;;;;;5010184;28;20081;-60
2022/04/19 08:50:28;;;;;;;2.53;1.73;;;14.00;99.90;;;;;;5017063;28;20076;-59
2022/04/19 08:58:26;;;;;;;2.70;1.77;;;14.40;99.90;;;;;;5004929;28;20608;-60
2022/04/19 09:00:52;;;;;;;2.60;1.80;;;14.50;99.90;;;;;;5016337;28;20570;-59
2022/04/19 09:03:19;;;;;;;2.65;2.10;;;14.60;99.90;;;;;;5012099;28;20144;-60
2022/04/19 09:05:50;;;;;;;2.88;2.20;;;14.50;99.90;;;;;;5002251;28;20450;-59
2022/04/19 09:08:18;;;;;;;2.75;1.65;;;14.60;99.90;;;;;;5009590;28;20416;-59
2022/04/19 09:10:45;;;;;;;2.50;1.58;;;14.70;99.90;;;;;;5016091;28;20411;-59
2022/04/19 09:13:14;;;;;;;2.67;1.65;;;14.90;99.90;;;;;;5015776;28;20594;-59
2022/04/19 09:15:41;;;;;;;3.45;2.65;;;15.10;99.90;;;;;;5014435;28;20500;-59
2022/04/19 09:18:20;;;;;;;3.60;2.60;;;15.00;99.90;;;;;;5010734;28;20198;-59
2022/04/19 09:20:53;;;;;;;4.05;2.58;;;14.90;99.90;;;;;;5017312;28;20164;-59
2022/04/19 09:23:20;;;;;;;2.78;2.20;;;15.00;99.90;;;;;;5010036;28;20427;-59
2022/04/19 09:25:51;;;;;;;3.08;2.17;;;15.00;99.90;;;;;;5017253;28;20490;-60
2022/04/19 09:28:21;;;;;;;3.70;2.40;;;15.20;99.90;;;;;;5008375;28;20083;-59
2022/04/19 09:30:49;;;;;;;2.72;2.38;;;15.30;99.90;;;;;;5001603;28;20287;-59
2022/04/19 09:33:17;;;;;;;3.33;2.33;;;15.30;99.90;;;;;;5004539;28;20275;-59
2022/04/19 09:35:47;;;;;;;2.88;2.15;;;15.30;99.90;;;;;;4999375;28;20229;-59
2022/04/19 09:38:14;;;;;;;3.28;2.47;;;15.40;99.90;;;;;;5007816;28;20128;-59
2022/04/19 09:40:43;;;;;;;2.80;2.08;;;15.70;99.90;;;;;;5005566;28;20046;-60
2022/04/19 09:43:18;;;;;;;2.45;2.03;;;15.80;99.90;;;;;;5000061;28;20046;-59
2022/04/19 09:45:58;;;;;;;3.65;2.10;;;15.90;99.90;;;;;;5005273;28;20049;-59
2022/04/19 09:48:33;;;;;;;2.65;2.20;;;15.90;99.90;;;;;;5027468;28;20496;-59
2022/04/19 09:51:04;;;;;;;2.90;2.10;;;16.00;99.90;;;;;;5008351;28;20079;-60
2022/04/19 09:53:31;;;;;;;3.05;2.15;;;16.00;99.90;;;;;;5002265;28;21018;-59
2022/04/19 09:55:59;;;;;;;3.78;2.83;;;16.00;99.90;;;;;;5006440;28;20121;-60
2022/04/19 09:58:26;;;;;;;3.67;2.55;;;15.90;99.90;;;;;;5005918;28;20085;-59
2022/04/19 10:00:52;;;;;;;3.13;2.55;;;16.00;99.90;;;;;;5015816;28;20091;-59
2022/04/19 10:08:53;;;;;;;2.65;2.33;;;16.00;99.90;;;;;;5024864;28;20144;-60
2022/04/19 10:11:20;;;;;;;3.30;2.10;;;16.00;99.90;;;;;;5023995;28;20128;-59
2022/04/19 10:13:47;;;;;;;3.28;2.35;;;16.10;99.90;;;;;;5024391;28;20189;-62
2022/04/19 10:16:17;;;;;;;3.83;2.50;;;16.20;99.90;;;;;;5020304;28;20093;-60
2022/04/19 10:18:46;;;;;;;4.10;2.53;;;16.40;99.90;;;;;;5020707;28;20136;-59
2022/04/19 10:21:19;;;;;;;3.58;2.13;;;16.50;99.90;;;;;;5021435;28;20467;-60
2022/04/19 10:23:46;;;;;;;3.22;2.28;;;16.60;99.90;;;;;;5015393;28;20045;-59
2022/04/19 10:26:22;;;;;;;2.40;1.85;;;16.70;99.90;;;;;;5006062;28;20382;-60
2022/04/19 10:28:53;;;;;;;3.20;2.10;;;16.80;99.90;;;;;;5005542;28;20234;-60
2022/04/19 10:31:34;;;;;;;2.72;1.80;;;16.90;99.90;;;;;;5032242;28;20085;-59
2022/04/19 10:34:02;;;;;;;2.83;1.83;;;16.90;99.90;;;;;;5017462;28;20119;-60
2022/04/19 10:36:39;;;;;;;2.60;2.05;;;16.80;99.90;;;;;;5025693;28;20176;-60
2022/04/19 10:39:12;;;;;;;2.65;1.95;;;16.80;99.90;;;;;;5018855;28;20141;-59
2022/04/19 10:42:02;;;;;;;3.17;2.00;;;16.90;99.90;;;;;;5018800;28;20284;-60
2022/04/19 10:44:38;;;;;;;2.50;1.65;;;16.90;99.90;;;;;;5012625;28;20049;-59
2022/04/19 10:47:16;;;;;;;3.17;2.00;;;17.00;99.90;;;;;;5003053;28;20127;-60
2022/04/19 10:49:55;;;;;;;3.22;2.28;;;17.10;99.90;;;;;;5004958;28;20243;-60
2022/04/19 10:52:37;;;;;;;3.75;2.50;;;17.10;99.90;;;;;;5017665;28;20204;-60
2022/04/19 10:55:07;;;;;;;2.78;2.05;;;17.10;99.90;;;;;;5016600;28;20193;-59
2022/04/19 11:00:36;;;;;;;3.67;2.88;;;17.10;99.90;;;;;;5009968;28;20164;-60
2022/04/19 11:03:26;;;;;;;2.72;2.00;;;17.10;99.90;;;;;;5018217;28;20446;-59
2022/04/19 11:05:53;;;;;;;2.97;2.10;;;17.20;99.90;;;;;;5017587;28;20144;-60
2022/04/19 11:08:26;;;;;;;3.25;2.60;;;17.20;99.90;;;;;;5001050;28;20160;-59
2022/04/19 11:10:56;;;;;;;3.00;2.38;;;17.30;99.90;;;;;;5017729;28;20061;-60
2022/04/19 11:13:27;;;;;;;3.45;2.47;;;17.30;99.90;;;;;;5018018;28;20141;-60
2022/04/19 11:16:06;;;;;;;3.47;2.22;;;17.40;99.90;;;;;;5017180;28;20541;-60
2022/04/19 11:18:39;;;;;;;3.15;2.58;;;17.60;99.90;;;;;;5008407;28;20053;-59
2022/04/19 11:21:46;;;;;;;3.10;2.20;;;17.60;99.90;;;;;;5007919;28;20115;-59
2022/04/19 11:24:52;;;;;;;3.25;2.42;;;17.70;99.90;;;;;;5019093;28;20053;-60
2022/04/19 11:27:19;;;;;;;4.07;2.22;;;17.60;99.90;;;;;;5006841;28;20421;-61
2022/04/19 11:29:47;;;;;;;2.50;2.00;;;17.70;99.90;;;;;;5013231;28;20077;-60
2022/04/19 11:32:25;;;;;;;3.40;2.53;;;17.80;99.90;;;;;;5008937;28;20424;-60
2022/04/19 11:35:01;;;;;;;3.33;2.50;;;17.80;99.90;;;;;;5021459;28;20140;-60
2022/04/19 11:37:32;;;;;;;2.65;2.22;;;18.00;99.90;;;;;;5020466;28;20054;-60
2022/04/19 11:48:29;;;;;;;3.05;2.65;;;18.70;99.90;;;;;;5002215;28;20053;-60
2022/04/19 11:51:17;;;;;;;3.40;3.00;;;18.80;99.90;;;;;;5017719;28;20113;-60
2022/04/19 11:53:44;;;;;;;3.35;2.85;;;18.90;99.90;;;;;;5017353;28;20136;-60
2022/04/19 11:56:11;;;;;;;3.70;2.55;;;19.10;99.80;;;;;;5039501;28;20548;-61
2022/04/19 11:58:40;;;;;;;3.53;2.92;;;19.40;99.50;;;;;;5017072;28;20132;-60
2022/04/19 12:01:08;;;;;;;3.78;2.83;;;19.40;99.40;;;;;;5021716;28;20089;-60
2022/04/19 12:03:39;;;;;;;4.25;3.17;;;19.30;99.40;;;;;;5020546;28;20379;-59
2022/04/19 12:06:18;;;;;;;3.13;2.80;;;19.30;99.30;;;;;;5018682;28;20147;-60
2022/04/19 12:08:52;;;;;;;3.22;2.60;;;19.30;99.10;;;;;;5021152;28;20640;-59
2022/04/19 12:11:27;;;;;;;3.17;2.50;;;19.30;98.60;;;;;;5029360;28;20114;-59
2022/04/19 12:13:54;;;;;;;3.85;2.88;;;19.20;97.90;;;;;;5026206;28;20555;-60
2022/04/19 12:16:30;;;;;;;3.28;2.75;;;19.00;98.60;;;;;;5008749;28;20085;-59
2022/04/19 12:18:59;;;;;;;2.53;2.22;;;19.00;98.20;;;;;;5035555;28;20053;-59
2022/04/19 12:21:34;;;;;;;3.15;2.53;;;19.40;98.60;;;;;;5023822;28;20087;-60
2022/04/19 12:24:01;;;;;;;2.92;2.22;;;19.40;97.10;;;;;;5006817;28;20080;-59
2022/04/19 12:26:28;;;;;;;3.08;2.22;;;19.40;96.50;;;;;;5018208;28;20049;-59
2022/04/19 12:29:02;;;;;;;3.40;2.30;;;19.20;97.20;;;;;;5015793;28;20544;-60
2022/04/19 12:31:32;;;;;;;2.95;2.65;;;19.00;98.20;;;;;;5008903;28;20133;-60
2022/04/19 12:33:59;;;;;;;3.60;3.00;;;19.00;98.40;;;;;;5021156;28;20537;-59
2022/04/19 12:36:27;;;;;;;3.75;2.80;;;19.00;97.20;;;;;;5013900;28;20060;-59
2022/04/19 12:39:03;;;;;;;3.53;2.60;;;18.90;98.50;;;;;;5017605;28;20097;-59
2022/04/19 12:41:40;;;;;;;2.50;2.13;;;19.40;96.90;;;;;;5018578;28;20531;-60
2022/04/19 12:44:08;;;;;;;2.22;1.70;;;19.60;97.00;;;;;;5021136;28;20056;-59
2022/04/19 12:46:41;;;;;;;1.85;1.40;;;19.80;94.90;;;;;;5018163;28;20591;-59
2022/04/19 12:49:29;;;;;;;2.55;1.60;;;19.80;95.30;;;;;;5005301;28;20045;-59
2022/04/19 12:52:06;;;;;;;2.78;1.90;;;19.80;95.80;;;;;;4998901;28;20356;-59
2022/04/19 12:54:35;;;;;;;2.53;2.00;;;19.90;95.10;;;;;;5020241;28;20053;-59
2022/04/19 12:59:49;;;;;;;3.33;1.65;;;20.80;94.70;;;;;;5019762;28;20417;-59
2022/04/19 13:02:17;;;;;;;1.90;1.40;;;20.80;93.90;;;;;;5019615;28;20049;-59
2022/04/19 13:04:44;;;;;;;2.58;1.77;;;20.80;94.00;;;;;;5018668;28;20497;-60
2022/04/19 13:12:43;;;;;;;2.05;1.40;;;21.60;91.20;;;;;;5019659;28;20092;-60
2022/04/19 13:15:10;;;;;;;1.92;1.30;;;21.20;91.60;;;;;;5018336;28;20643;-60
2022/04/19 13:17:39;;;;;;;2.40;1.23;;;21.00;90.50;;;;;;5019877;28;20128;-59
2022/04/19 13:20:06;;;;;;;1.75;1.25;;;21.10;90.60;;;;;;5019616;28;20141;-60
2022/04/19 13:22:33;;;;;;;3.13;1.20;;;21.40;91.20;;;;;;5019396;28;20132;-60
2022/04/19 13:25:00;;;;;;;1.48;1.17;;;21.50;91.30;;;;;;5018068;28;20088;-60
2022/04/19 13:27:29;;;;;;;2.00;1.40;;;21.40;90.60;;;;;;5009192;28;20407;-60
2022/04/19 13:29:55;;;;;;;2.88;1.23;;;21.60;90.60;;;;;;5006390;28;20146;-61
2022/04/19 13:32:22;;;;;;;2.10;1.30;;;22.10;90.90;;;;;;5014360;28;20092;-60
2022/04/19 13:34:49;;;;;;;2.22;1.63;;;22.10;90.10;;;;;;5001249;28;20057;-60
2022/04/19 13:37:19;;;;;;;2.65;1.90;;;22.00;89.00;;;;;;5000844;28;20120;-60
2022/04/19 13:40:03;;;;;;;1.40;1.23;;;21.90;89.40;;;;;;5002388;28;20160;-60
2022/04/19 13:42:30;;;;;;;2.13;1.60;;;22.20;88.70;;;;;;5003742;28;20093;-60
2022/04/19 13:44:57;;;;;;;2.20;1.42;;;22.40;87.90;;;;;;5009231;28;20136;-59
2022/04/19 13:47:24;;;;;;;2.10;1.60;;;22.20;87.00;;;;;;5019148;28;20080;-59
2022/04/19 13:49:50;;;;;;;2.15;1.52;;;22.10;86.70;;;;;;5017162;28;20133;-60
2022/04/19 13:52:17;;;;;;;3.33;2.13;;;21.70;87.10;;;;;;5017293;28;20056;-60